AirNav   Pilot Hours Calculator
 
 310 users online  

N27 Bradford County Airport
Towanda, Pennsylvania, USA

GOING TO TOWANDA?


FAA INFORMATION EFFECTIVE 28 MARCH 2019

Location

FAA Identifier: N27
Lat/Long: 41-44-24.0000N / 076-26-49.7000W
41-44.400000N / 076-26.828333W
41.7400000 / -76.4471389
(estimated)
Elevation: 730.3 ft. / 222.6 m (surveyed)
Variation: 12W (2000)
From city: 2 miles S of TOWANDA, PA
Time zone: UTC -4 (UTC -5 during Standard Time)
Zip code: 18848

Airport Operations

Airport use: Open to the public
Activation date: 07/1938
Control tower: no
ARTCC: NEW YORK CENTER
FSS: WILLIAMSPORT FLIGHT SERVICE STATION
NOTAMs facility: IPT (NOTAM-D service available)
Attendance: M-F 0800-1700, MAR-OCT SAT-SUN 0800-1600, NOV-FEB SAT-SUN UNATTENDED
FOR SVC AFT HRS CALL 570-637-4902.
Wind indicator: lighted
Segmented circle: yes
Lights: ACTVT REIL AND HIRL RWY 05/23 - 123.0.
Beacon: white-green (lighted land airport)
Operates sunset to sunrise.

Airport Communications

CTAF/UNICOM: 123.0
WX AWOS-3: 119.925 (570-265-1024)
BINGHAMTON APPROACH: 118.6
BINGHAMTON DEPARTURE: 118.6
  • APCH/DEP SERVICE PRVDD BY NEW YORK ARTCC ON FREQS 132.175/298.9 (ELK MOUNTAIN RCAG) WHEN BINGHAMTON APCH CTL CLOSED.

Nearby radio navigation aids

VOR radial/distance  VOR name  Freq  Var
FQMr040/28.2WILLIAMSPORT VOR/DME114.4009W
CFBr219/28.6BINGHAMTON VOR/DME112.2010W
ULWr141/33.4ELMIRA VOR/DME109.6512W

 
NDB name  Hdg/Dist  Freq  Var  ID
ALPINE167/33.124512WALP .- .-.. .--.

Airport Services

Fuel available: 100LL JET-A
Parking: hangars and tiedowns
Airframe service: MAJOR
Powerplant service: MAJOR
Bottled oxygen: NONE
Bulk oxygen: NONE

Runway Information

Runway 5/23

Dimensions: 4301 x 75 ft. / 1311 x 23 m
Surface: asphalt, in fair condition
Weight bearing capacity: 
Single wheel: 12.0
Runway edge lights: high intensity
RUNWAY 5  RUNWAY 23
Latitude: 41-44.110687N41-44.690593N
Longitude: 076-27.099407W076-26.556652W
Elevation: 730.2 ft.713.5 ft.
Gradient: 0.388% DOWN0.388% UP
Traffic pattern: leftleft
Runway heading: 047 magnetic, 035 true227 magnetic, 215 true
Markings: nonprecision, in good conditionnonprecision, in good condition
Visual slope indicator: 2-light PAPI on left (3.00 degrees glide path)2-light PAPI on left (3.00 degrees glide path)
Runway end identifier lights: yesyes
Touchdown point: yes, no lightsyes, no lights

Airport Ownership and Management from official FAA records

Ownership: Publicly-owned
Owner: BRADFORD COUNTY AIRPORT AUTHORITY
415 AIRPORT RD.
TOWANDA, PA 18848
Phone 570-265-4900
Manager: KIERAN SPAULDING
415 AIRPORT RD.
TOWANDA, PA 18848
Phone 570-265-4900

Airport Operational Statistics

Aircraft based on the field: 23
Single engine airplanes: 22
Multi engine airplanes: 1
    
Aircraft operations: avg 63/day *
65% transient general aviation
35% local general aviation
<1% military
* for 12-month period ending 27 September 2018

Additional Remarks

ULTRALIGHT ACTIVITY ON AND INVOF.

Instrument Procedures

NOTE: All procedures below are presented as PDF files. If you need a reader for these files, you should download the free Adobe Reader.

NOT FOR NAVIGATION. Please procure official charts for flight.
FAA instrument procedures published for use from 28 March 2019 at 0901Z to 25 April 2019 at 0900Z.

 
IAPs - Instrument Approach Procedures
RNAV (GPS) RWY 23   download (179KB)
RNAV (GPS)-A   download (172KB)
NOTE: Special Take-Off Minimums/Departure Procedures apply   download (283KB)

Other nearby airports with instrument procedures:

KCZG - Tri-Cities Airport (26 nm NE)
KELM - Elmira/Corning Regional Airport (32 nm NW)
9N3 - Seamans Field Airport (32 nm E)
KBGM - Greater Binghamton Airport/Edwin A Link Field (35 nm NE)
KIPT - Williamsport Regional Airport (37 nm SW)
 
Loc | Ops | Rwys | IFR | FBO | Links
Com | Nav | Svcs | Stats | Notes
Area around N27 (Bradford County Airport)
 
Road maps at: MapQuest Bing Google
 
Aerial photo
WARNING: Photo may not be current or correct
Aerial photo of N27 (Bradford County Airport)
looking southwest

Do you have a better or more recent aerial photo of Bradford County Airport that you would like to share? If so, please send us your photo.

 
Sectional chart

 
Airport distance calculator
Flying to Bradford County Airport? Find the distance to fly.

From to N27

Sunrise and sunset
Times for 20-Apr-2019
 Local
(UTC-4)
 Zulu
(UTC)
Morning civil twilight05:5009:50
Sunrise06:1910:19
Sunset19:5123:51
Evening civil twilight20:2000:20

Current date and time
Zulu (UTC)  20-Apr-2019 09:49:18
Local (UTC-4)  20-Apr-2019 05:49:18
 
METAR
KELM 
32nm NW 
200853Z AUTO 10007KT 10SM OVC007 08/07 A2961 RMK AO2 SLP027 T00780067 53014
KBGM 
35nm NE 
200853Z AUTO 16007G16KT 10SM SCT016 SCT028 BKN036 17/15 A2960 RMK AO2 SLP015 T01670150 52004
KIPT 
36nm SW 
200929Z AUTO VRB04G21KT 10SM FEW024 BKN043 OVC055 19/16 A2955 RMK AO2 T01940156
KAVP 
40nm SE 
200914Z 20007KT 10SM FEW017 BKN024 OVC038 19/16 A2962 RMK AO2 T01890161
KN38 
43nm W 
200935Z AUTO 08003KT 9SM SCT010 BKN028 OVC038 15/15 A2957 RMK AO2
KITH 
44nm N 
200856Z AUTO 31006KT 6SM BR OVC002 05/05 A2964 RMK AO2 SLP038 60001 T00500050 53014
KHZL 
50nm SE 
200935Z AUTO 15009G16KT 10SM OVC008 17/15 A2967 RMK AO2
TAF
KELM 
32nm NW 
200523Z 2006/2106 09007KT 6SM -RA BR OVC009 TEMPO 2008/2012 2SM -RA BR FM201500 15010KT P6SM BKN015 OVC025 FM201700 18015G25KT P6SM SCT025 SCT040 FM210000 17007KT P6SM SCT060
KBGM 
35nm NE 
200803Z 2008/2106 18008KT P6SM BKN015 OVC035 TEMPO 2009/2012 1 1/2SM -RA BR OVC007 FM201600 16012G20KT P6SM BKN015 OVC035 FM201900 18015G25KT P6SM SCT040 FM210200 17009KT P6SM SCT080
KIPT 
36nm SW 
200600Z 2006/2106 10007KT P6SM VCSH OVC015 FM201400 13010G20KT P6SM VCSH BKN025 FM201800 16012G22KT P6SM BKN050 FM210000 15010KT P6SM OVC050
NOTAMs
Click for the latest NOTAMs
NOTAMs are issued by the DoD/FAA and will open in a separate window not controlled by AirNav.

 

 
 

FBO, Fuel Providers, and Aircraft Ground Support

  
 Business Name 
 
 Contact 
 
 Services / Description 
 
Fuel Prices
 
Comments
  
Bradford County Airport Authority 570-265-4900
no information available

If you are affiliated with Bradford County Airport Authority and would like to show here your services, contact info, web link, logo, and more, click here
100LL Jet A
SS $4.69 $3.97 
 Updated 11-Apr-2019
 
   3 read write
SS=Self service
Update Fuel Prices
 

Would you like to see your business listed on this page?

 If your business provides an interesting product or service to pilots, flight crews, aircraft, or users of the Bradford County Airport, you should consider listing it here.  To start the listing process, click on the button below
 
Add a business
 

Other Pages about Bradford County Airport

Update a link
 
Copyright © AirNav, LLC. All rights reserved. Privacy Policy  Contact